Time;durP1;ratioP1;P1;durP2;ratioP2;P2;SDS_P1;SDS_P2;PMS_P1;PMS_P2;Temp;Humidity;BMP_temperature;BMP_pressure;BME280_temperature;BME280_humidity;BME280_pressure;Samples;Min_cycle;Max_cycle;Signal;HPM_P1;HPM_P2
2022/05/14 00:00:35;;;;;;;;;;;;;;;16.98;64.07;99726.94;4995128;28;19932;-68
2022/05/14 00:03:04;;;;;;;;;;;;;;;17.04;63.57;99725.03;4994912;28;20016;-69
2022/05/14 00:05:32;;;;;;;;;;;;;;;17.07;62.97;99737.84;4994801;28;19932;-67
2022/05/14 00:08:11;;;;;;;;;;;;;;;17.07;62.80;99745.59;4994835;28;19996;-67
2022/05/14 00:13:24;;;;;;;;;;;;;;;17.05;62.42;99736.22;4994392;28;19971;-68
2022/05/14 00:15:53;;;;;;;;;;;;;;;17.06;62.10;99743.06;4994346;28;19932;-69
2022/05/14 00:18:23;;;;;;;;;;;;;;;17.04;61.71;99739.66;4995067;28;19948;-68
2022/05/14 00:20:53;;;;;;;;;;;;;;;17.05;61.66;99739.63;4994833;28;19977;-68
2022/05/14 00:23:21;;;;;;;;;;;;;;;17.06;61.24;99748.22;4995001;28;19926;-68
2022/05/14 00:25:51;;;;;;;;;;;;;;;17.06;60.65;99753.38;4994601;28;19980;-67
2022/05/14 00:28:19;;;;;;;;;;;;;;;17.02;60.22;99742.28;4994503;28;19932;-68
2022/05/14 00:30:49;;;;;;;;;;;;;;;17.03;59.87;99754.31;4994652;28;20288;-67
2022/05/14 00:33:21;;;;;;;;;;;;;;;17.05;59.79;99752.53;4977289;28;19994;-68
2022/05/14 00:35:53;;;;;;;;;;;;;;;17.05;59.57;99747.38;4994825;28;19945;-68
2022/05/14 00:38:22;;;;;;;;;;;;;;;17.03;59.50;99746.56;4994361;28;19941;-68
2022/05/14 00:40:55;;;;;;;;;;;;;;;17.03;59.47;99748.31;4995057;28;20331;-68
2022/05/14 00:43:27;;;;;;;;;;;;;;;17.04;59.83;99744.81;4994910;28;19926;-68
2022/05/14 00:46:01;;;;;;;;;;;;;;;17.01;59.99;99743.16;4994461;28;19926;-68
2022/05/14 00:48:35;;;;;;;;;;;;;;;17.02;59.86;99744.88;4977537;28;20012;-67
2022/05/14 00:51:07;;;;;;;;;;;;;;;16.95;59.68;99735.59;4994715;28;19936;-68
2022/05/14 00:53:37;;;;;;;;;;;;;;;16.94;59.85;99744.22;4994468;28;19929;-68
2022/05/14 00:56:08;;;;;;;;;;;;;;;16.89;60.00;99746.09;4994337;28;19932;-68
2022/05/14 00:58:41;;;;;;;;;;;;;;;16.84;60.57;99747.94;4994392;28;19926;-68
2022/05/14 01:01:14;;;;;;;;;;;;;;;16.77;60.90;99748.97;4994431;28;19930;-68
2022/05/14 01:03:43;;;;;;;;;;;;;;;16.72;61.27;99753.38;4994731;28;19933;-68
2022/05/14 01:06:14;;;;;;;;;;;;;;;16.63;61.58;99743.28;4994174;28;19926;-68
2022/05/14 01:08:43;;;;;;;;;;;;;;;16.51;62.36;99746.09;4994676;28;19930;-68
2022/05/14 01:11:18;;;;;;;;;;;;;;;16.44;62.88;99744.56;4976872;28;20438;-68
2022/05/14 01:13:47;;;;;;;;;;;;;;;16.33;63.05;99749.13;4976973;28;20438;-68
2022/05/14 01:16:20;;;;;;;;;;;;;;;16.21;63.65;99750.25;4994221;28;20410;-68
2022/05/14 01:18:50;;;;;;;;;;;;;;;16.13;64.16;99751.28;4977376;28;20024;-68
2022/05/14 01:21:25;;;;;;;;;;;;;;;16.09;64.26;99741.09;4976809;28;19933;-68
2022/05/14 01:26:45;;;;;;;;;;;;;;;16.12;63.73;99739.31;4976902;28;19932;-68
2022/05/14 01:29:15;;;;;;;;;;;;;;;16.13;63.22;99741.00;4997034;28;19930;-68
2022/05/14 01:31:44;;;;;;;;;;;;;;;16.08;62.69;99739.38;4998146;28;19929;-68
2022/05/14 01:34:15;;;;;;;;;;;;;;;16.12;62.46;99740.16;4997776;28;19925;-68
2022/05/14 01:36:44;;;;;;;;;;;;;;;16.11;62.07;99733.31;4980649;28;19930;-68
2022/05/14 01:39:14;;;;;;;;;;;;;;;16.11;62.13;99746.19;4980801;28;19926;-68
2022/05/14 01:41:44;;;;;;;;;;;;;;;16.08;61.81;99739.38;4997646;28;19926;-68
2022/05/14 01:44:14;;;;;;;;;;;;;;;16.08;61.85;99749.66;4980929;28;19958;-68
2022/05/14 01:46:43;;;;;;;;;;;;;;;16.12;61.54;99749.63;4980077;28;19929;-68
2022/05/14 01:49:12;;;;;;;;;;;;;;;16.07;61.54;99752.28;4997415;28;19929;-68
2022/05/14 01:51:49;;;;;;;;;;;;;;;15.96;61.92;99749.09;4997440;28;20057;-68
2022/05/14 01:54:18;;;;;;;;;;;;;;;15.86;62.09;99753.56;4980083;28;19926;-68
2022/05/14 01:56:48;;;;;;;;;;;;;;;15.78;62.53;99752.91;4997909;28;19926;-68
2022/05/14 01:59:17;;;;;;;;;;;;;;;15.60;63.08;99754.97;4980036;28;19933;-68
2022/05/14 02:01:49;;;;;;;;;;;;;;;15.57;63.68;99760.22;4979839;28;19925;-68
2022/05/14 02:04:18;;;;;;;;;;;;;;;15.51;63.81;99765.47;4979878;28;19953;-68
2022/05/14 02:06:47;;;;;;;;;;;;;;;15.43;64.22;99763.84;4980075;28;19926;-68
2022/05/14 02:09:16;;;;;;;;;;;;;;;15.32;64.68;99759.78;4997001;28;19926;-68
2022/05/14 02:11:52;;;;;;;;;;;;;;;15.20;64.96;99765.16;4979834;28;19926;-68
2022/05/14 02:14:34;;;;;;;;;;;;;;;15.04;65.24;99763.75;4997074;28;19926;-68
2022/05/14 02:17:07;;;;;;;;;;;;;;;14.88;65.88;99758.00;4979900;28;20256;-68
2022/05/14 02:19:36;;;;;;;;;;;;;;;14.77;66.09;99765.91;4979819;28;20331;-68
2022/05/14 02:22:13;;;;;;;;;;;;;;;14.70;66.44;99774.59;4997298;28;19926;-68
2022/05/14 02:24:56;;;;;;;;;;;;;;;14.59;66.41;99771.31;4963920;28;20350;-68
2022/05/14 02:27:35;;;;;;;;;;;;;;;14.60;66.85;99775.59;4979369;28;19933;-68
2022/05/14 02:30:04;;;;;;;;;;;;;;;14.61;67.09;99784.97;4979757;28;19926;-68
2022/05/14 02:32:38;;;;;;;;;;;;;;;14.61;66.84;99781.59;4979338;28;19972;-68
2022/05/14 02:35:10;;;;;;;;;;;;;;;14.55;66.49;99779.09;4996494;28;19972;-68
2022/05/14 02:37:39;;;;;;;;;;;;;;;14.42;67.23;99781.00;4978992;28;19925;-68
2022/05/14 02:40:08;;;;;;;;;;;;;;;14.34;67.43;99775.16;4996112;28;19926;-68
2022/05/14 02:42:38;;;;;;;;;;;;;;;14.32;68.22;99782.03;4996493;28;19933;-68
2022/05/14 02:45:11;;;;;;;;;;;;;;;14.25;68.31;99784.66;4996540;28;20017;-68
2022/05/14 02:47:41;;;;;;;;;;;;;;;14.12;68.78;99778.84;4996729;28;20008;-68
2022/05/14 02:50:10;;;;;;;;;;;;;;;14.10;68.78;99781.44;4996351;28;19926;-68
2022/05/14 02:52:39;;;;;;;;;;;;;;;14.06;68.54;99787.47;4996414;28;19926;-68
2022/05/14 02:55:10;;;;;;;;;;;;;;;14.03;68.48;99790.09;4996339;28;19949;-67
2022/05/14 02:57:41;;;;;;;;;;;;;;;13.97;69.14;99791.88;4978965;28;19933;-68
2022/05/14 03:00:12;;;;;;;;;;;;;;;13.96;69.08;99787.63;4996789;28;19932;-68
2022/05/14 03:02:41;;;;;;;;;;;;;;;13.88;69.67;99794.53;4979155;28;19968;-68
2022/05/14 03:05:10;;;;;;;;;;;;;;;13.91;69.45;99794.53;4996496;28;19926;-68
2022/05/14 03:07:39;;;;;;;;;;;;;;;13.82;69.35;99795.47;4996482;28;19933;-67
2022/05/14 03:10:09;;;;;;;;;;;;;;;13.82;69.74;99799.78;4978935;28;19926;-68
2022/05/14 03:12:57;;;;;;;;;;;;;;;13.66;69.35;99803.34;4995801;28;19930;-68
2022/05/14 03:15:29;;;;;;;;;;;;;;;13.61;69.73;99794.84;4978701;28;19925;-69
2022/05/14 03:17:58;;;;;;;;;;;;;;;13.59;69.87;99800.00;4995917;28;19933;-68
2022/05/14 03:20:26;;;;;;;;;;;;;;;13.66;69.82;99799.09;4995829;28;19938;-68
2022/05/14 03:23:07;;;;;;;;;;;;;;;13.70;70.05;99800.72;4978603;28;20399;-68
2022/05/14 03:25:36;;;;;;;;;;;;;;;13.75;70.19;99801.53;4995785;28;19968;-67
2022/05/14 03:28:06;;;;;;;;;;;;;;;13.76;69.74;99807.53;4978392;28;20021;-68
2022/05/14 03:30:35;;;;;;;;;;;;;;;13.66;69.15;99808.47;4996262;28;19934;-65
2022/05/14 03:33:03;;;;;;;;;;;;;;;13.48;69.48;99806.13;4995893;28;19980;-65
2022/05/14 03:35:32;;;;;;;;;;;;;;;13.41;70.07;99807.91;4978555;28;19955;-66
2022/05/14 03:38:01;;;;;;;;;;;;;;;13.42;70.02;99807.88;4995297;28;19925;-68
2022/05/14 03:40:30;;;;;;;;;;;;;;;13.44;70.33;99813.84;4978427;28;19926;-68
2022/05/14 03:42:59;;;;;;;;;;;;;;;13.40;70.53;99822.44;4995655;28;19965;-68
2022/05/14 03:45:30;;;;;;;;;;;;;;;13.35;70.90;99823.34;4995636;28;20364;-68
2022/05/14 03:48:01;;;;;;;;;;;;;;;13.32;70.96;99819.09;4978221;28;19972;-67
2022/05/14 03:50:31;;;;;;;;;;;;;;;13.29;71.35;99821.69;4994521;28;19932;-67
2022/05/14 03:52:59;;;;;;;;;;;;;;;13.29;71.52;99826.81;4978079;28;20372;-68
2022/05/14 03:55:29;;;;;;;;;;;;;;;13.32;71.57;99834.47;4977963;28;20398;-68
2022/05/14 03:57:58;;;;;;;;;;;;;;;13.35;71.88;99833.59;4977821;28;19994;-68
2022/05/14 04:00:31;;;;;;;;;;;;;;;13.38;71.88;99842.13;4995469;28;19933;-68
2022/05/14 04:03:00;;;;;;;;;;;;;;;13.50;71.34;99835.16;4995038;28;19932;-68
2022/05/14 04:05:29;;;;;;;;;;;;;;;13.60;71.58;99842.75;4977655;28;19926;-68
2022/05/14 04:08:01;;;;;;;;;;;;;;;13.67;71.17;99846.09;4977675;28;19973;-68
2022/05/14 04:10:30;;;;;;;;;;;;;;;13.55;71.15;99852.22;4977572;28;19925;-66
2022/05/14 04:13:00;;;;;;;;;;;;;;;13.63;71.28;99857.28;4977509;28;19925;-68
2022/05/14 04:15:40;;;;;;;;;;;;;;;13.61;70.32;99864.09;4994898;28;19926;-68
2022/05/14 04:18:10;;;;;;;;;;;;;;;13.63;70.21;99870.09;4978236;28;19926;-68
2022/05/14 04:20:42;;;;;;;;;;;;;;;13.68;70.25;99863.19;4977795;28;20330;-68
2022/05/14 04:23:11;;;;;;;;;;;;;;;13.81;70.38;99870.75;4977963;28;19968;-68
2022/05/14 04:25:43;;;;;;;;;;;;;;;13.89;69.96;99873.25;4994708;28;19933;-68
2022/05/14 04:28:12;;;;;;;;;;;;;;;14.02;69.27;99869.66;4977485;28;19926;-68
2022/05/14 04:30:53;;;;;;;;;;;;;;;14.09;68.69;99871.28;4977300;28;19932;-68
2022/05/14 04:33:22;;;;;;;;;;;;;;;14.16;68.82;99872.91;4994825;28;19933;-68
2022/05/14 04:35:51;;;;;;;;;;;;;;;14.37;68.30;99877.78;4994890;28;20339;-69
2022/05/14 04:38:20;;;;;;;;;;;;;;;14.61;68.55;99887.75;4994367;28;19925;-69
2022/05/14 04:40:49;;;;;;;;;;;;;;;14.83;68.47;99882.31;4994909;28;19926;-69
2022/05/14 04:43:18;;;;;;;;;;;;;;;14.97;68.54;99893.25;4994857;28;19926;-68
2022/05/14 04:45:46;;;;;;;;;;;;;;;14.98;67.44;99895.78;4994625;28;19925;-68
2022/05/14 04:48:17;;;;;;;;;;;;;;;15.02;66.75;99894.03;4994878;28;19972;-69
2022/05/14 04:50:47;;;;;;;;;;;;;;;15.22;66.25;99903.13;4977989;28;20255;-68
2022/05/14 04:53:15;;;;;;;;;;;;;;;15.48;66.91;99907.03;4977484;28;20372;-69
2022/05/14 04:55:45;;;;;;;;;;;;;;;15.66;66.83;99904.13;4977039;28;19936;-69
2022/05/14 04:58:13;;;;;;;;;;;;;;;15.75;66.79;99909.97;4994796;28;19926;-69
2022/05/14 05:00:47;;;;;;;;;;;;;;;15.97;66.20;99911.25;4977103;28;19976;-68
2022/05/14 05:03:19;;;;;;;;;;;;;;;16.20;65.83;99908.22;4980105;28;20393;-69
2022/05/14 05:05:56;;;;;;;;;;;;;;;16.47;64.48;99911.97;4998591;28;19930;-68
2022/05/14 05:08:26;;;;;;;;;;;;;;;16.66;63.14;99913.31;4982085;28;20382;-69
2022/05/14 05:10:56;;;;;;;;;;;;;;;16.78;61.94;99913.03;4998191;28;19926;-69
2022/05/14 05:13:29;;;;;;;;;;;;;;;16.96;61.15;99912.66;4998433;28;19929;-69
2022/05/14 05:15:58;;;;;;;;;;;;;;;17.17;60.59;99904.41;4998361;28;20264;-69
2022/05/14 05:18:29;;;;;;;;;;;;;;;17.32;59.49;99913.50;4997645;28;20372;-69
2022/05/14 05:20:57;;;;;;;;;;;;;;;17.40;59.36;99917.59;4998067;28;19925;-69
2022/05/14 05:23:26;;;;;;;;;;;;;;;17.51;58.40;99921.63;4980839;28;20312;-68
2022/05/14 05:25:56;;;;;;;;;;;;;;;17.56;57.48;99919.81;4998164;28;19953;-68
2022/05/14 05:28:25;;;;;;;;;;;;;;;17.60;56.92;99919.72;4998756;28;19930;-68
2022/05/14 05:30:54;;;;;;;;;;;;;;;17.69;56.50;99918.63;4997854;28;19926;-69
2022/05/14 05:33:24;;;;;;;;;;;;;;;17.63;55.97;99919.66;4998415;28;20406;-69
2022/05/14 05:35:55;;;;;;;;;;;;;;;17.75;56.45;99931.38;4998093;28;20016;-68
2022/05/14 05:38:26;;;;;;;;;;;;;;;17.88;57.09;99927.56;4997846;28;19926;-68
2022/05/14 05:40:55;;;;;;;;;;;;;;;18.00;57.84;99937.59;4997658;28;19929;-69
2022/05/14 05:43:23;;;;;;;;;;;;;;;18.13;58.16;99944.13;4997888;28;19976;-69
2022/05/14 05:45:52;;;;;;;;;;;;;;;18.23;57.73;99940.41;4997402;28;19932;-68
2022/05/14 05:48:21;;;;;;;;;;;;;;;18.34;57.52;99937.50;4997553;28;19925;-69
2022/05/14 05:50:55;;;;;;;;;;;;;;;18.41;57.29;99937.28;4998218;28;19953;-69
2022/05/14 05:56:46;;;;;;;;;;;;;;;18.59;57.01;99939.41;4997603;28;19930;-68
2022/05/14 05:59:00;;;;;;;;;;;;;;;18.74;56.91;99946.69;4997774;28;20016;-68
2022/05/14 06:01:29;;;;;;;;;;;;;;;18.74;56.97;99948.41;4997547;28;19926;-68
2022/05/14 06:03:57;;;;;;;;;;;;;;;18.69;56.60;99951.16;4997152;28;19932;-68
2022/05/14 06:06:31;;;;;;;;;;;;;;;18.64;56.15;99952.19;4997063;28;19937;-68
2022/05/14 06:09:00;;;;;;;;;;;;;;;18.52;57.29;99955.94;4997130;28;19933;-68
2022/05/14 06:11:32;;;;;;;;;;;;;;;18.52;57.39;99952.53;4996989;28;19932;-68
2022/05/14 06:14:04;;;;;;;;;;;;;;;18.63;57.39;99946.16;4996537;28;19961;-68
2022/05/14 06:16:33;;;;;;;;;;;;;;;18.68;56.90;99954.66;4997332;28;20368;-69
2022/05/14 06:19:02;;;;;;;;;;;;;;;18.72;56.63;99953.66;4979515;28;19932;-68
2022/05/14 06:21:32;;;;;;;;;;;;;;;18.84;56.96;99959.34;4996780;28;19968;-68
2022/05/14 06:24:01;;;;;;;;;;;;;;;18.96;57.19;99964.16;4996959;28;19933;-68
2022/05/14 06:26:32;;;;;;;;;;;;;;;18.97;55.97;99956.34;4997083;28;20375;-68
2022/05/14 06:29:01;;;;;;;;;;;;;;;19.03;54.37;99956.16;4997388;28;19997;-68
2022/05/14 06:31:30;;;;;;;;;;;;;;;19.20;53.22;99955.63;4996733;28;19926;-68
2022/05/14 06:34:00;;;;;;;;;;;;;;;19.29;51.08;99953.59;4997004;28;19925;-69
2022/05/14 06:36:30;;;;;;;;;;;;;;;19.42;50.40;99959.28;4996679;28;19926;-67
2022/05/14 06:39:19;;;;;;;;;;;;;;;19.53;50.06;99957.19;4996268;28;19926;-68
2022/05/14 06:41:49;;;;;;;;;;;;;;;19.59;49.16;99949.22;4997048;28;20474;-67
2022/05/14 06:44:18;;;;;;;;;;;;;;;19.61;49.04;99955.19;4997029;28;20065;-68
2022/05/14 06:46:47;;;;;;;;;;;;;;;19.69;49.21;99963.56;4996596;28;19972;-68
2022/05/14 06:49:16;;;;;;;;;;;;;;;19.81;49.38;99957.97;4996719;28;19929;-68
2022/05/14 06:51:45;;;;;;;;;;;;;;;19.95;48.83;99966.13;4996210;28;19997;-68
2022/05/14 06:54:14;;;;;;;;;;;;;;;19.98;48.10;99965.16;4996538;28;19933;-69
2022/05/14 06:56:44;;;;;;;;;;;;;;;20.10;47.56;99958.72;4996257;28;19980;-68
2022/05/14 06:59:31;;;;;;;;;;;;;;;20.19;47.44;99964.41;4996253;28;20020;-68
2022/05/14 07:02:00;;;;;;;;;;;;;;;20.32;47.28;99970.06;4996224;28;19926;-69
2022/05/14 07:07:10;;;;;;;;;;;;;;;20.36;46.42;99971.63;4996256;28;19926;-68
2022/05/14 07:09:38;;;;;;;;;;;;;;;20.38;45.77;99969.81;4996070;28;19965;-68
2022/05/14 07:12:09;;;;;;;;;;;;;;;20.44;45.22;99964.44;4995872;28;19947;-69
2022/05/14 07:14:41;;;;;;;;;;;;;;;20.44;45.12;99974.81;4996573;28;19926;-69
2022/05/14 07:17:10;;;;;;;;;;;;;;;20.44;45.27;99967.84;4995851;28;19925;-68
2022/05/14 07:19:46;;;;;;;;;;;;;;;20.65;46.40;99974.00;4995756;28;20013;-68
2022/05/14 07:22:16;;;;;;;;;;;;;;;20.78;46.03;99970.03;4979056;28;19937;-67
2022/05/14 07:24:45;;;;;;;;;;;;;;;20.88;46.23;99967.94;4995648;28;19936;-69
2022/05/14 07:27:14;;;;;;;;;;;;;;;20.98;45.85;99975.34;4995656;28;20442;-69
2022/05/14 07:29:45;;;;;;;;;;;;;;;21.03;45.46;99970.81;4995528;28;19980;-67
2022/05/14 07:32:15;;;;;;;;;;;;;;;20.99;43.94;99969.25;4995699;28;20372;-67
2022/05/14 07:34:44;;;;;;;;;;;;;;;20.99;43.67;99979.63;4995950;28;19936;-68
2022/05/14 07:37:14;;;;;;;;;;;;;;;20.86;42.47;99973.19;4996158;28;20331;-69
2022/05/14 07:39:46;;;;;;;;;;;;;;;20.90;43.16;99969.56;4994092;28;20331;-68
2022/05/14 07:42:18;;;;;;;;;;;;;;;20.87;42.84;99974.91;4994942;28;19933;-67
2022/05/14 07:44:49;;;;;;;;;;;;;;;20.90;42.42;99974.78;4995455;28;19926;-67
2022/05/14 07:47:27;;;;;;;;;;;;;;;21.05;42.54;99971.63;4995368;28;19929;-67
2022/05/14 07:49:57;;;;;;;;;;;;;;;21.14;42.83;99967.84;4995377;28;19933;-69
2022/05/14 07:52:30;;;;;;;;;;;;;;;21.29;42.25;99973.25;4995270;28;19988;-69
2022/05/14 07:54:59;;;;;;;;;;;;;;;21.40;41.56;99978.03;4995448;28;19941;-68
2022/05/14 07:57:37;;;;;;;;;;;;;;;21.52;40.93;99968.91;4995128;28;20390;-67
2022/05/14 08:00:08;;;;;;;;;;;;;;;21.51;40.75;99972.41;4995050;28;20371;-68
2022/05/14 08:02:44;;;;;;;;;;;;;;;21.58;40.69;99979.03;4995140;28;19932;-66
2022/05/14 08:05:13;;;;;;;;;;;;;;;21.59;40.16;99963.41;4994942;28;20391;-66
2022/05/14 08:07:43;;;;;;;;;;;;;;;21.65;40.49;99965.72;4994849;28;19929;-67
2022/05/14 08:10:13;;;;;;;;;;;;;;;21.86;41.35;99972.66;4995314;28;19926;-68
2022/05/14 08:12:42;;;;;;;;;;;;;;;22.04;41.09;99963.25;4994777;28;19925;-67
2022/05/14 08:15:15;;;;;;;;;;;;;;;22.03;40.28;99958.94;4995446;28;20025;-66
2022/05/14 08:17:45;;;;;;;;;;;;;;;22.18;39.76;99965.25;4994825;28;19933;-68
2022/05/14 08:20:14;;;;;;;;;;;;;;;22.25;39.70;99962.31;4995023;28;19949;-66
2022/05/14 08:25:34;;;;;;;;;;;;;;;22.02;38.96;99965.06;4994680;28;19933;-68
2022/05/14 08:28:03;;;;;;;;;;;;;;;22.18;38.94;99966.09;4994797;28;19926;-68
2022/05/14 08:30:34;;;;;;;;;;;;;;;22.28;38.62;99959.59;4994906;28;19933;-68
2022/05/14 08:33:14;;;;;;;;;;;;;;;22.31;38.38;99967.25;4994942;28;20016;-67
2022/05/14 08:35:43;;;;;;;;;;;;;;;22.56;39.58;99960.03;4961310;28;19926;-69
2022/05/14 08:38:14;;;;;;;;;;;;;;;22.47;39.09;99955.25;4994094;28;20324;-68
2022/05/14 08:40:55;;;;;;;;;;;;;;;22.48;39.89;99954.31;4995107;28;19926;-66
2022/05/14 08:43:28;;;;;;;;;;;;;;;22.36;38.68;99960.06;4975444;28;19932;-67
2022/05/14 08:45:59;;;;;;;;;;;;;;;22.31;38.41;99956.84;4975186;28;19933;-66
2022/05/14 08:48:32;;;;;;;;;;;;;;;22.26;37.88;99960.56;4975333;28;19933;-68
2022/05/14 08:51:03;;;;;;;;;;;;;;;22.35;37.92;99960.16;4974829;28;19977;-68
2022/05/14 08:53:33;;;;;;;;;;;;;;;22.37;38.14;99953.97;4975356;28;20403;-68
2022/05/14 08:56:13;;;;;;;;;;;;;;;22.42;38.58;99953.75;4974922;28;20376;-68
2022/05/14 08:58:50;;;;;;;;;;;;;;;22.30;38.18;99949.97;4975394;28;20292;-68
2022/05/14 09:01:32;;;;;;;;;;;;;;;22.43;38.51;99950.25;4974983;28;19937;-67
2022/05/14 09:04:01;;;;;;;;;;;;;;;22.58;38.46;99949.53;4974840;28;19926;-68
2022/05/14 09:06:50;;;;;;;;;;;;;;;22.82;39.00;99952.84;4974882;28;19927;-67
2022/05/14 09:09:22;;;;;;;;;;;;;;;22.96;37.92;99951.25;4975251;28;19976;-68
2022/05/14 09:11:55;;;;;;;;;;;;;;;22.92;37.43;99943.66;4967182;28;19932;-68
2022/05/14 09:14:28;;;;;;;;;;;;;;;22.92;37.49;99948.88;4975479;28;19926;-68
2022/05/14 09:17:02;;;;;;;;;;;;;;;22.95;38.10;99944.38;4974923;28;19933;-68
2022/05/14 09:19:35;;;;;;;;;;;;;;;23.10;38.09;99942.81;4974763;28;19926;-67
2022/05/14 09:22:12;;;;;;;;;;;;;;;22.98;37.55;99944.25;4974751;28;19926;-68
2022/05/14 09:24:44;;;;;;;;;;;;;;;23.11;37.67;99944.50;4974885;28;19926;-67
2022/05/14 09:27:15;;;;;;;;;;;;;;;23.25;36.80;99939.50;4975098;28;19926;-68
2022/05/14 09:29:46;;;;;;;;;;;;;;;23.53;36.38;99931.19;4958050;28;20082;-67
2022/05/14 09:32:31;;;;;;;;;;;;;;;23.73;36.56;99934.47;4974887;28;19986;-67
2022/05/14 09:35:05;;;;;;;;;;;;;;;23.80;36.93;99938.44;4957477;28;19926;-68
2022/05/14 09:37:50;;;;;;;;;;;;;;;23.97;37.56;99938.44;4974716;28;19926;-69
2022/05/14 09:40:21;;;;;;;;;;;;;;;24.00;37.94;99934.81;4974517;28;19930;-68
2022/05/14 09:42:52;;;;;;;;;;;;;;;23.74;38.09;99925.75;4991020;28;19933;-68
2022/05/14 09:45:33;;;;;;;;;;;;;;;23.63;38.97;99917.63;4994268;28;19929;-68
2022/05/14 09:48:15;;;;;;;;;;;;;;;23.25;37.37;99929.88;4993941;28;19973;-66
2022/05/14 09:50:45;;;;;;;;;;;;;;;23.10;37.39;99927.19;4997450;28;19926;-68
2022/05/14 09:53:25;;;;;;;;;;;;;;;23.39;38.60;99926.66;4997453;28;19926;-69
2022/05/14 09:56:05;;;;;;;;;;;;;;;23.50;39.01;99920.91;4997759;28;19973;-69
2022/05/14 09:58:39;;;;;;;;;;;;;;;23.70;39.95;99929.44;4997439;28;20001;-69
2022/05/14 10:01:09;;;;;;;;;;;;;;;23.89;38.39;99919.75;4997626;28;20032;-68
2022/05/14 10:03:45;;;;;;;;;;;;;;;24.09;38.49;99915.31;4997268;28;19984;-68
2022/05/14 10:06:24;;;;;;;;;;;;;;;24.22;38.35;99919.78;4997229;28;20376;-69
2022/05/14 10:09:01;;;;;;;;;;;;;;;24.42;38.63;99913.53;4997483;28;20343;-70
2022/05/14 10:11:48;;;;;;;;;;;;;;;24.56;37.85;99916.22;4997383;28;19926;-69
2022/05/14 10:14:27;;;;;;;;;;;;;;;24.37;38.22;99900.72;4997045;28;20020;-68
2022/05/14 10:17:00;;;;;;;;;;;;;;;24.09;38.24;99899.66;4997315;28;19938;-69
2022/05/14 10:19:40;;;;;;;;;;;;;;;24.02;37.88;99912.97;4996959;28;19930;-68
2022/05/14 10:22:13;;;;;;;;;;;;;;;24.23;37.89;99908.44;4997271;28;20032;-72
2022/05/14 10:27:51;;;;;;;;;;;;;;;24.75;38.00;99911.69;4974618;28;19926;-68
2022/05/14 10:30:24;;;;;;;;;;;;;;;24.85;37.01;99912.91;4996758;28;19930;-68
2022/05/14 10:32:55;;;;;;;;;;;;;;;25.05;37.39;99912.59;4996994;28;19969;-69
2022/05/14 10:35:29;;;;;;;;;;;;;;;25.12;37.26;99905.28;4996978;28;19980;-68
2022/05/14 10:38:00;;;;;;;;;;;;;;;24.97;36.63;99906.16;4996760;28;19976;-69
2022/05/14 10:40:32;;;;;;;;;;;;;;;25.12;36.19;99911.34;4996570;28;19930;-69
2022/05/14 10:43:16;;;;;;;;;;;;;;;25.12;35.00;99910.50;4996704;28;19941;-68
2022/05/14 10:45:46;;;;;;;;;;;;;;;25.02;34.63;99899.75;4996918;28;19925;-71
2022/05/14 10:48:18;;;;;;;;;;;;;;;25.06;35.70;99893.41;4996473;28;19933;-70
2022/05/14 10:50:48;;;;;;;;;;;;;;;25.19;36.58;99891.75;4996504;28;19925;-69
2022/05/14 10:53:18;;;;;;;;;;;;;;;25.34;37.19;99886.63;4996299;28;20020;-69
2022/05/14 10:55:51;;;;;;;;;;;;;;;25.41;36.50;99885.31;4996606;28;20388;-70
2022/05/14 10:58:22;;;;;;;;;;;;;;;25.20;36.64;99887.38;4996448;28;20017;-69
2022/05/14 11:00:50;;;;;;;;;;;;;;;25.20;35.49;99893.47;4988498;28;19985;-69
2022/05/14 11:03:24;;;;;;;;;;;;;;;25.37;36.16;99889.03;4996131;28;19948;-69
2022/05/14 11:06:08;;;;;;;;;;;;;;;25.50;36.84;99896.13;4996497;28;19926;-69
2022/05/14 11:08:38;;;;;;;;;;;;;;;25.44;36.02;99890.34;4996153;28;20023;-70
2022/05/14 11:11:16;;;;;;;;;;;;;;;25.24;35.39;99884.50;4996463;28;19925;-70
2022/05/14 11:13:56;;;;;;;;;;;;;;;25.21;36.01;99889.09;4996259;28;20364;-68
2022/05/14 11:16:35;;;;;;;;;;;;;;;25.25;34.39;99878.34;4996556;28;19926;-69
2022/05/14 11:19:07;;;;;;;;;;;;;;;25.36;34.01;99876.91;4995857;28;19933;-69
2022/05/14 11:21:39;;;;;;;;;;;;;;;25.44;34.62;99879.91;4995856;28;19929;-68
2022/05/14 11:24:11;;;;;;;;;;;;;;;25.53;34.95;99876.81;4995793;28;19926;-69
2022/05/14 11:26:47;;;;;;;;;;;;;;;25.64;35.44;99871.75;4996331;28;20319;-69
2022/05/14 11:29:19;;;;;;;;;;;;;;;25.71;35.38;99873.09;4995678;28;19925;-69
2022/05/14 11:31:55;;;;;;;;;;;;;;;25.80;35.85;99869.91;4978604;28;20372;-67
2022/05/14 11:34:26;;;;;;;;;;;;;;;25.88;35.10;99879.00;4995593;28;19976;-69
2022/05/14 11:36:58;;;;;;;;;;;;;;;25.96;34.62;99873.31;4995465;28;19933;-69
2022/05/14 11:39:29;;;;;;;;;;;;;;;25.88;34.15;99873.75;4995656;28;20447;-69
2022/05/14 11:42:07;;;;;;;;;;;;;;;25.81;34.21;99884.69;4995458;28;19932;-70
2022/05/14 11:44:42;;;;;;;;;;;;;;;25.96;34.36;99878.53;4995358;28;20012;-69
2022/05/14 11:47:35;;;;;;;;;;;;;;;26.00;33.33;99877.41;4995295;28;20017;-70
2022/05/14 11:50:04;;;;;;;;;;;;;;;25.82;33.26;99871.50;4995903;28;19926;-70
2022/05/14 11:52:38;;;;;;;;;;;;;;;25.88;33.77;99875.53;4995129;28;19929;-69
2022/05/14 11:55:09;;;;;;;;;;;;;;;25.95;33.92;99871.63;4995881;28;19948;-70
2022/05/14 11:57:41;;;;;;;;;;;;;;;26.04;34.35;99865.81;4995079;28;19925;-70
2022/05/14 12:00:15;;;;;;;;;;;;;;;26.11;34.79;99869.75;4995376;28;19925;-68
2022/05/14 12:02:48;;;;;;;;;;;;;;;26.07;33.75;99873.47;4995111;28;19929;-70
2022/05/14 12:05:19;;;;;;;;;;;;;;;26.22;33.81;99875.19;4995100;28;19926;-69
2022/05/14 12:07:59;;;;;;;;;;;;;;;26.30;33.48;99872.94;4995384;28;19926;-69
2022/05/14 12:10:32;;;;;;;;;;;;;;;26.31;33.22;99861.53;4995601;28;20331;-71
2022/05/14 12:13:07;;;;;;;;;;;;;;;26.19;33.71;99864.91;4994136;28;19980;-70
2022/05/14 12:15:37;;;;;;;;;;;;;;;26.29;34.35;99866.03;4994860;28;19980;-70
2022/05/14 12:18:11;;;;;;;;;;;;;;;26.36;33.59;99854.25;4995444;28;20020;-68
2022/05/14 12:20:40;;;;;;;;;;;;;;;26.33;32.91;99851.81;4995111;28;19929;-70
2022/05/14 12:23:17;;;;;;;;;;;;;;;26.35;32.82;99855.16;4995106;28;19926;-70
2022/05/14 12:25:47;;;;;;;;;;;;;;;26.25;32.95;99850.63;4994726;28;19930;-70
2022/05/14 12:28:27;;;;;;;;;;;;;;;26.21;32.74;99852.56;4977364;28;19932;-70
2022/05/14 12:33:37;;;;;;;;;;;;;;;26.26;32.99;99853.13;4994203;28;20329;-69
2022/05/14 12:36:07;;;;;;;;;;;;;;;26.29;32.73;99845.09;4994466;28;19926;-70
2022/05/14 12:38:41;;;;;;;;;;;;;;;26.24;33.01;99841.91;4994472;28;19932;-69
2022/05/14 12:41:20;;;;;;;;;;;;;;;26.27;32.14;99844.34;4994913;28;19925;-70
2022/05/14 12:43:49;;;;;;;;;;;;;;;26.27;32.75;99831.25;4977492;28;20004;-69
2022/05/14 12:46:19;;;;;;;;;;;;;;;26.31;33.13;99832.75;4994326;28;19976;-69
2022/05/14 12:48:50;;;;;;;;;;;;;;;26.32;33.26;99823.94;4994296;28;20025;-70
2022/05/14 12:51:19;;;;;;;;;;;;;;;26.43;33.12;99831.13;4994743;28;19932;-70
2022/05/14 12:53:50;;;;;;;;;;;;;;;26.50;33.07;99828.03;4994569;28;19981;-70
2022/05/14 12:56:22;;;;;;;;;;;;;;;26.51;32.75;99818.41;4994520;28;19934;-70
2022/05/14 12:59:00;;;;;;;;;;;;;;;26.49;33.01;99821.09;4994458;28;19932;-69
2022/05/14 13:01:47;;;;;;;;;;;;;;;26.50;33.00;99817.53;4994680;28;19925;-70
2022/05/14 13:04:18;;;;;;;;;;;;;;;26.36;33.05;99814.13;4994219;28;19932;-69
2022/05/14 13:06:47;;;;;;;;;;;;;;;26.28;33.42;99806.75;4994339;28;19926;-70
2022/05/14 13:09:23;;;;;;;;;;;;;;;26.24;33.59;99810.50;4994316;28;19948;-70
2022/05/14 13:11:57;;;;;;;;;;;;;;;26.17;32.74;99809.22;4994674;28;20327;-69
2022/05/14 13:14:28;;;;;;;;;;;;;;;26.12;32.89;99806.03;4994190;28;19961;-70
2022/05/14 13:16:59;;;;;;;;;;;;;;;26.10;32.26;99801.81;4994827;28;20335;-70
2022/05/14 13:19:35;;;;;;;;;;;;;;;26.10;32.38;99802.66;4994066;28;19973;-70
2022/05/14 13:22:07;;;;;;;;;;;;;;;26.12;32.99;99800.81;4994472;28;19930;-69
2022/05/14 13:24:37;;;;;;;;;;;;;;;26.21;32.86;99800.22;4997706;28;19969;-69
2022/05/14 13:27:09;;;;;;;;;;;;;;;26.29;33.89;99787.50;4997962;28;19925;-70
2022/05/14 13:29:43;;;;;;;;;;;;;;;26.27;33.88;99794.63;4997863;28;19933;-70
2022/05/14 13:32:13;;;;;;;;;;;;;;;26.32;33.79;99791.69;4997896;28;19926;-69